sensor_id;sensor_type;location;lat;lon;timestamp;temperature;humidity
38910;DHT22;24676;51.360;12.354;2023-06-04T00:02:23;12.20;50.80
38910;DHT22;24676;51.360;12.354;2023-06-04T00:05:07;12.10;51.00
38910;DHT22;24676;51.360;12.354;2023-06-04T00:07:52;12.00;51.40
38910;DHT22;24676;51.360;12.354;2023-06-04T00:10:36;12.00;52.60
38910;DHT22;24676;51.360;12.354;2023-06-04T00:13:23;11.90;52.50
38910;DHT22;24676;51.360;12.354;2023-06-04T00:16:07;11.90;52.10
38910;DHT22;24676;51.360;12.354;2023-06-04T00:18:51;11.80;52.30
38910;DHT22;24676;51.360;12.354;2023-06-04T00:21:35;11.70;52.60
38910;DHT22;24676;51.360;12.354;2023-06-04T00:24:19;11.70;52.80
38910;DHT22;24676;51.360;12.354;2023-06-04T00:27:04;11.60;53.30
38910;DHT22;24676;51.360;12.354;2023-06-04T00:29:48;11.60;53.70
38910;DHT22;24676;51.360;12.354;2023-06-04T00:32:32;11.50;54.00
38910;DHT22;24676;51.360;12.354;2023-06-04T00:35:16;11.50;54.40
38910;DHT22;24676;51.360;12.354;2023-06-04T00:38:00;11.40;54.80
38910;DHT22;24676;51.360;12.354;2023-06-04T00:40:45;11.30;55.40
38910;DHT22;24676;51.360;12.354;2023-06-04T00:43:29;11.20;55.80
38910;DHT22;24676;51.360;12.354;2023-06-04T00:46:15;11.20;55.80
38910;DHT22;24676;51.360;12.354;2023-06-04T00:49:02;11.10;56.70
38910;DHT22;24676;51.360;12.354;2023-06-04T00:51:46;11.10;56.90
38910;DHT22;24676;51.360;12.354;2023-06-04T00:54:31;11.00;57.90
38910;DHT22;24676;51.360;12.354;2023-06-04T00:57:18;11.00;58.60
38910;DHT22;24676;51.360;12.354;2023-06-04T01:00:03;10.90;59.20
38910;DHT22;24676;51.360;12.354;2023-06-04T01:02:51;10.80;59.50
38910;DHT22;24676;51.360;12.354;2023-06-04T01:06:04;10.80;60.60
38910;DHT22;24676;51.360;12.354;2023-06-04T01:08:52;10.70;61.70
38910;DHT22;24676;51.360;12.354;2023-06-04T01:11:38;10.60;62.40
38910;DHT22;24676;51.360;12.354;2023-06-04T01:14:23;10.50;63.40
38910;DHT22;24676;51.360;12.354;2023-06-04T01:17:39;10.50;61.50
38910;DHT22;24676;51.360;12.354;2023-06-04T01:20:42;10.50;64.00
38910;DHT22;24676;51.360;12.354;2023-06-04T01:23:50;10.40;65.40
38910;DHT22;24676;51.360;12.354;2023-06-04T01:26:42;10.40;63.70
38910;DHT22;24676;51.360;12.354;2023-06-04T01:29:26;10.40;66.00
38910;DHT22;24676;51.360;12.354;2023-06-04T01:32:13;10.40;68.00
38910;DHT22;24676;51.360;12.354;2023-06-04T01:34:58;10.30;69.30
38910;DHT22;24676;51.360;12.354;2023-06-04T01:37:42;10.30;67.30
38910;DHT22;24676;51.360;12.354;2023-06-04T01:40:27;10.30;66.20
38910;DHT22;24676;51.360;12.354;2023-06-04T01:43:11;10.30;63.70
38910;DHT22;24676;51.360;12.354;2023-06-04T01:45:55;10.40;64.00
38910;DHT22;24676;51.360;12.354;2023-06-04T01:48:40;10.40;63.30
38910;DHT22;24676;51.360;12.354;2023-06-04T01:51:25;10.50;62.90
38910;DHT22;24676;51.360;12.354;2023-06-04T01:54:09;10.50;62.80
38910;DHT22;24676;51.360;12.354;2023-06-04T01:56:53;10.50;62.30
38910;DHT22;24676;51.360;12.354;2023-06-04T01:59:37;10.50;64.10
38910;DHT22;24676;51.360;12.354;2023-06-04T02:02:22;10.40;63.50
38910;DHT22;24676;51.360;12.354;2023-06-04T02:05:08;10.30;64.90
38910;DHT22;24676;51.360;12.354;2023-06-04T02:07:52;10.30;64.70
38910;DHT22;24676;51.360;12.354;2023-06-04T02:10:36;10.30;67.80
38910;DHT22;24676;51.360;12.354;2023-06-04T02:13:20;10.20;71.50
38910;DHT22;24676;51.360;12.354;2023-06-04T02:16:05;10.00;73.30
38910;DHT22;24676;51.360;12.354;2023-06-04T02:18:49;10.00;73.40
38910;DHT22;24676;51.360;12.354;2023-06-04T02:21:34;9.90;73.80
38910;DHT22;24676;51.360;12.354;2023-06-04T02:24:19;9.80;74.70
38910;DHT22;24676;51.360;12.354;2023-06-04T02:27:05;9.70;79.30
38910;DHT22;24676;51.360;12.354;2023-06-04T02:29:50;9.70;80.50
38910;DHT22;24676;51.360;12.354;2023-06-04T02:32:34;9.60;84.50
38910;DHT22;24676;51.360;12.354;2023-06-04T02:35:20;9.50;87.30
38910;DHT22;24676;51.360;12.354;2023-06-04T02:38:07;9.40;90.00
38910;DHT22;24676;51.360;12.354;2023-06-04T02:40:51;9.30;92.40
38910;DHT22;24676;51.360;12.354;2023-06-04T02:43:36;9.20;95.00
38910;DHT22;24676;51.360;12.354;2023-06-04T02:46:20;9.10;95.70
38910;DHT22;24676;51.360;12.354;2023-06-04T02:49:05;9.10;97.30
38910;DHT22;24676;51.360;12.354;2023-06-04T02:51:49;9.00;99.10
38910;DHT22;24676;51.360;12.354;2023-06-04T02:54:34;9.00;99.90
38910;DHT22;24676;51.360;12.354;2023-06-04T02:57:18;8.90;99.50
38910;DHT22;24676;51.360;12.354;2023-06-04T03:00:03;8.90;99.90
38910;DHT22;24676;51.360;12.354;2023-06-04T03:02:55;8.90;99.90
38910;DHT22;24676;51.360;12.354;2023-06-04T03:05:45;8.90;99.90
38910;DHT22;24676;51.360;12.354;2023-06-04T03:08:30;8.90;99.90
38910;DHT22;24676;51.360;12.354;2023-06-04T03:11:14;9.00;99.90
38910;DHT22;24676;51.360;12.354;2023-06-04T03:13:58;8.90;99.90
38910;DHT22;24676;51.360;12.354;2023-06-04T03:16:42;8.90;99.90
38910;DHT22;24676;51.360;12.354;2023-06-04T03:19:27;8.90;99.90
38910;DHT22;24676;51.360;12.354;2023-06-04T03:22:11;8.80;99.90
38910;DHT22;24676;51.360;12.354;2023-06-04T03:24:56;8.80;99.90
38910;DHT22;24676;51.360;12.354;2023-06-04T03:27:40;8.80;99.90
38910;DHT22;24676;51.360;12.354;2023-06-04T03:30:24;8.80;99.90
38910;DHT22;24676;51.360;12.354;2023-06-04T03:33:08;8.80;99.90
38910;DHT22;24676;51.360;12.354;2023-06-04T03:35:52;8.70;99.90
38910;DHT22;24676;51.360;12.354;2023-06-04T03:38:37;8.70;99.90
38910;DHT22;24676;51.360;12.354;2023-06-04T03:41:21;8.70;99.90
38910;DHT22;24676;51.360;12.354;2023-06-04T03:44:05;8.70;99.90
38910;DHT22;24676;51.360;12.354;2023-06-04T03:46:49;8.70;99.90
38910;DHT22;24676;51.360;12.354;2023-06-04T03:49:33;8.70;99.90
38910;DHT22;24676;51.360;12.354;2023-06-04T03:52:18;8.80;99.90
38910;DHT22;24676;51.360;12.354;2023-06-04T03:55:03;8.80;99.90
38910;DHT22;24676;51.360;12.354;2023-06-04T03:57:47;8.90;99.90
38910;DHT22;24676;51.360;12.354;2023-06-04T04:00:31;9.00;99.90
38910;DHT22;24676;51.360;12.354;2023-06-04T04:03:15;9.00;99.90
38910;DHT22;24676;51.360;12.354;2023-06-04T04:06:00;9.20;99.90
38910;DHT22;24676;51.360;12.354;2023-06-04T04:08:45;9.20;99.90
38910;DHT22;24676;51.360;12.354;2023-06-04T04:11:29;9.30;99.90
38910;DHT22;24676;51.360;12.354;2023-06-04T04:14:14;9.40;99.90
38910;DHT22;24676;51.360;12.354;2023-06-04T04:16:58;9.70;99.90
38910;DHT22;24676;51.360;12.354;2023-06-04T04:19:42;10.60;99.90
38910;DHT22;24676;51.360;12.354;2023-06-04T04:22:26;12.00;99.90
38910;DHT22;24676;51.360;12.354;2023-06-04T04:25:11;13.50;93.30
38910;DHT22;24676;51.360;12.354;2023-06-04T04:27:54;15.00;76.20
38910;DHT22;24676;51.360;12.354;2023-06-04T04:30:40;16.50;64.10
38910;DHT22;24676;51.360;12.354;2023-06-04T04:33:24;17.80;57.50
38910;DHT22;24676;51.360;12.354;2023-06-04T04:36:08;18.90;52.70
38910;DHT22;24676;51.360;12.354;2023-06-04T04:38:56;20.00;47.90
38910;DHT22;24676;51.360;12.354;2023-06-04T04:41:42;21.00;44.40
38910;DHT22;24676;51.360;12.354;2023-06-04T04:44:26;22.20;41.70
38910;DHT22;24676;51.360;12.354;2023-06-04T04:47:10;23.20;39.30
38910;DHT22;24676;51.360;12.354;2023-06-04T04:49:55;23.60;38.80
38910;DHT22;24676;51.360;12.354;2023-06-04T04:52:39;24.40;36.60
38910;DHT22;24676;51.360;12.354;2023-06-04T04:55:23;24.60;35.60
38910;DHT22;24676;51.360;12.354;2023-06-04T04:58:07;25.30;34.90
38910;DHT22;24676;51.360;12.354;2023-06-04T05:00:51;26.20;33.30
38910;DHT22;24676;51.360;12.354;2023-06-04T05:03:36;26.90;31.10
38910;DHT22;24676;51.360;12.354;2023-06-04T05:06:20;27.60;27.70
38910;DHT22;24676;51.360;12.354;2023-06-04T05:09:05;28.60;27.20
38910;DHT22;24676;51.360;12.354;2023-06-04T05:11:49;29.60;25.70
38910;DHT22;24676;51.360;12.354;2023-06-04T05:14:33;30.30;24.70
38910;DHT22;24676;51.360;12.354;2023-06-04T05:17:19;30.90;24.10
38910;DHT22;24676;51.360;12.354;2023-06-04T05:20:05;31.20;23.30
38910;DHT22;24676;51.360;12.354;2023-06-04T05:22:50;31.90;23.00
38910;DHT22;24676;51.360;12.354;2023-06-04T05:25:35;32.10;23.00
38910;DHT22;24676;51.360;12.354;2023-06-04T05:28:20;32.90;22.50
38910;DHT22;24676;51.360;12.354;2023-06-04T05:31:04;33.70;21.30
38910;DHT22;24676;51.360;12.354;2023-06-04T05:33:48;34.30;21.00
38910;DHT22;24676;51.360;12.354;2023-06-04T05:36:33;34.60;20.50
38910;DHT22;24676;51.360;12.354;2023-06-04T05:39:17;34.70;20.60
38910;DHT22;24676;51.360;12.354;2023-06-04T05:42:02;35.00;20.30
38910;DHT22;24676;51.360;12.354;2023-06-04T05:44:47;35.20;19.80
38910;DHT22;24676;51.360;12.354;2023-06-04T05:47:32;35.90;19.80
38910;DHT22;24676;51.360;12.354;2023-06-04T05:50:19;36.20;19.60
38910;DHT22;24676;51.360;12.354;2023-06-04T05:53:03;37.00;19.10
38910;DHT22;24676;51.360;12.354;2023-06-04T05:55:47;37.30;18.80
38910;DHT22;24676;51.360;12.354;2023-06-04T05:58:33;38.20;18.40
38910;DHT22;24676;51.360;12.354;2023-06-04T06:01:18;38.70;18.00
38910;DHT22;24676;51.360;12.354;2023-06-04T06:04:02;39.60;17.50
38910;DHT22;24676;51.360;12.354;2023-06-04T06:06:47;39.80;17.50
38910;DHT22;24676;51.360;12.354;2023-06-04T06:09:32;40.00;17.10
38910;DHT22;24676;51.360;12.354;2023-06-04T06:12:16;40.20;16.70
38910;DHT22;24676;51.360;12.354;2023-06-04T06:15:01;39.20;17.00
38910;DHT22;24676;51.360;12.354;2023-06-04T06:17:45;39.70;17.50
38910;DHT22;24676;51.360;12.354;2023-06-04T06:20:29;40.10;16.90
38910;DHT22;24676;51.360;12.354;2023-06-04T06:23:14;40.50;16.40
38910;DHT22;24676;51.360;12.354;2023-06-04T06:25:59;39.10;16.80
38910;DHT22;24676;51.360;12.354;2023-06-04T06:28:45;38.70;17.40
38910;DHT22;24676;51.360;12.354;2023-06-04T06:31:30;39.40;17.00
38910;DHT22;24676;51.360;12.354;2023-06-04T06:34:14;40.30;17.00
38910;DHT22;24676;51.360;12.354;2023-06-04T06:36:58;41.40;16.20
38910;DHT22;24676;51.360;12.354;2023-06-04T06:39:42;41.20;16.00
38910;DHT22;24676;51.360;12.354;2023-06-04T06:42:32;41.50;15.70
38910;DHT22;24676;51.360;12.354;2023-06-04T06:45:20;42.00;15.70
38910;DHT22;24676;51.360;12.354;2023-06-04T06:48:04;42.90;15.20
38910;DHT22;24676;51.360;12.354;2023-06-04T06:50:49;43.10;14.80
38910;DHT22;24676;51.360;12.354;2023-06-04T06:53:33;42.20;14.80
38910;DHT22;24676;51.360;12.354;2023-06-04T06:56:17;40.70;15.70
38910;DHT22;24676;51.360;12.354;2023-06-04T06:59:04;40.30;15.80
38910;DHT22;24676;51.360;12.354;2023-06-04T07:01:49;39.80;16.40
38910;DHT22;24676;51.360;12.354;2023-06-04T07:04:33;39.70;16.70
38910;DHT22;24676;51.360;12.354;2023-06-04T07:07:17;40.00;16.60
38910;DHT22;24676;51.360;12.354;2023-06-04T07:10:02;40.80;15.90
38910;DHT22;24676;51.360;12.354;2023-06-04T07:12:47;40.70;15.90
38910;DHT22;24676;51.360;12.354;2023-06-04T07:15:32;41.40;15.80
38910;DHT22;24676;51.360;12.354;2023-06-04T07:18:16;41.20;15.90
38910;DHT22;24676;51.360;12.354;2023-06-04T07:21:00;41.30;15.90
38910;DHT22;24676;51.360;12.354;2023-06-04T07:23:44;40.70;15.90
38910;DHT22;24676;51.360;12.354;2023-06-04T07:26:32;41.00;15.90
38910;DHT22;24676;51.360;12.354;2023-06-04T07:29:16;40.30;15.60
38910;DHT22;24676;51.360;12.354;2023-06-04T07:32:00;40.40;15.70
38910;DHT22;24676;51.360;12.354;2023-06-04T07:34:44;40.90;15.60
38910;DHT22;24676;51.360;12.354;2023-06-04T07:37:29;41.10;15.30
38910;DHT22;24676;51.360;12.354;2023-06-04T07:40:15;41.00;15.50
38910;DHT22;24676;51.360;12.354;2023-06-04T07:42:59;41.00;15.70
38910;DHT22;24676;51.360;12.354;2023-06-04T07:45:43;41.80;15.00
38910;DHT22;24676;51.360;12.354;2023-06-04T07:48:28;41.30;14.60
38910;DHT22;24676;51.360;12.354;2023-06-04T07:51:14;40.40;15.00
38910;DHT22;24676;51.360;12.354;2023-06-04T07:53:59;39.50;15.00
38910;DHT22;24676;51.360;12.354;2023-06-04T07:56:43;39.10;15.20
38910;DHT22;24676;51.360;12.354;2023-06-04T07:59:27;39.00;15.20
38910;DHT22;24676;51.360;12.354;2023-06-04T08:02:13;38.40;15.80
38910;DHT22;24676;51.360;12.354;2023-06-04T08:04:58;38.90;15.90
38910;DHT22;24676;51.360;12.354;2023-06-04T08:07:43;39.00;15.70
38910;DHT22;24676;51.360;12.354;2023-06-04T08:10:27;39.10;15.70
38910;DHT22;24676;51.360;12.354;2023-06-04T08:13:11;39.70;14.90
38910;DHT22;24676;51.360;12.354;2023-06-04T08:15:56;39.40;14.80
38910;DHT22;24676;51.360;12.354;2023-06-04T08:18:40;38.50;15.00
38910;DHT22;24676;51.360;12.354;2023-06-04T08:21:26;37.10;15.40
38910;DHT22;24676;51.360;12.354;2023-06-04T08:24:10;35.10;16.10
38910;DHT22;24676;51.360;12.354;2023-06-04T08:26:55;33.00;16.80
38910;DHT22;24676;51.360;12.354;2023-06-04T08:29:39;31.30;18.60
38910;DHT22;24676;51.360;12.354;2023-06-04T08:32:24;30.20;20.00
38910;DHT22;24676;51.360;12.354;2023-06-04T08:35:08;29.50;19.90
38910;DHT22;24676;51.360;12.354;2023-06-04T08:37:52;28.50;20.30
38910;DHT22;24676;51.360;12.354;2023-06-04T08:40:36;27.80;21.30
38910;DHT22;24676;51.360;12.354;2023-06-04T08:43:21;27.50;21.70
38910;DHT22;24676;51.360;12.354;2023-06-04T08:46:05;27.10;21.90
38910;DHT22;24676;51.360;12.354;2023-06-04T08:48:54;27.10;21.60
38910;DHT22;24676;51.360;12.354;2023-06-04T08:51:40;27.10;21.90
38910;DHT22;24676;51.360;12.354;2023-06-04T08:54:24;26.80;22.50
38910;DHT22;24676;51.360;12.354;2023-06-04T08:57:10;26.90;22.30
38910;DHT22;24676;51.360;12.354;2023-06-04T08:59:54;27.00;22.20
38910;DHT22;24676;51.360;12.354;2023-06-04T09:02:39;26.80;22.10
38910;DHT22;24676;51.360;12.354;2023-06-04T09:05:23;26.40;22.90
38910;DHT22;24676;51.360;12.354;2023-06-04T09:08:08;26.60;22.70
38910;DHT22;24676;51.360;12.354;2023-06-04T09:10:55;26.80;22.40
38910;DHT22;24676;51.360;12.354;2023-06-04T09:13:40;26.90;22.40
38910;DHT22;24676;51.360;12.354;2023-06-04T09:16:26;27.30;23.10
38910;DHT22;24676;51.360;12.354;2023-06-04T09:19:10;28.30;21.60
38910;DHT22;24676;51.360;12.354;2023-06-04T09:21:59;27.80;20.90
38910;DHT22;24676;51.360;12.354;2023-06-04T09:24:47;27.40;21.80
38910;DHT22;24676;51.360;12.354;2023-06-04T09:27:40;27.80;21.60
38910;DHT22;24676;51.360;12.354;2023-06-04T09:30:24;28.10;21.70
38910;DHT22;24676;51.360;12.354;2023-06-04T09:33:09;28.50;21.70
38910;DHT22;24676;51.360;12.354;2023-06-04T09:35:55;28.70;20.50
38910;DHT22;24676;51.360;12.354;2023-06-04T09:38:40;28.40;20.30
38910;DHT22;24676;51.360;12.354;2023-06-04T09:41:25;28.30;21.10
38910;DHT22;24676;51.360;12.354;2023-06-04T09:44:10;28.20;21.50
38910;DHT22;24676;51.360;12.354;2023-06-04T09:46:57;28.60;21.50
38910;DHT22;24676;51.360;12.354;2023-06-04T09:49:46;28.70;21.40
38910;DHT22;24676;51.360;12.354;2023-06-04T09:52:34;28.50;21.10
38910;DHT22;24676;51.360;12.354;2023-06-04T09:55:19;28.10;21.20
38910;DHT22;24676;51.360;12.354;2023-06-04T09:58:05;27.70;21.10
38910;DHT22;24676;51.360;12.354;2023-06-04T10:00:49;27.70;21.70
38910;DHT22;24676;51.360;12.354;2023-06-04T10:03:36;28.10;21.50
38910;DHT22;24676;51.360;12.354;2023-06-04T10:06:21;28.20;20.10
38910;DHT22;24676;51.360;12.354;2023-06-04T10:09:07;27.60;20.70
38910;DHT22;24676;51.360;12.354;2023-06-04T10:11:56;27.20;20.20
38910;DHT22;24676;51.360;12.354;2023-06-04T10:14:52;27.20;20.40
38910;DHT22;24676;51.360;12.354;2023-06-04T10:17:37;27.70;21.40
38910;DHT22;24676;51.360;12.354;2023-06-04T10:20:22;28.70;21.00
38910;DHT22;24676;51.360;12.354;2023-06-04T10:23:07;29.40;19.70
38910;DHT22;24676;51.360;12.354;2023-06-04T10:25:54;30.20;19.00
38910;DHT22;24676;51.360;12.354;2023-06-04T10:28:41;31.20;18.60
38910;DHT22;24676;51.360;12.354;2023-06-04T10:31:26;32.10;17.90
38910;DHT22;24676;51.360;12.354;2023-06-04T10:34:11;33.00;17.50
38910;DHT22;24676;51.360;12.354;2023-06-04T10:36:56;32.40;17.40
38910;DHT22;24676;51.360;12.354;2023-06-04T10:39:50;32.20;16.20
38910;DHT22;24676;51.360;12.354;2023-06-04T10:42:42;32.60;15.40
38910;DHT22;24676;51.360;12.354;2023-06-04T10:45:30;32.80;16.20
38910;DHT22;24676;51.360;12.354;2023-06-04T10:48:14;33.10;15.60
38910;DHT22;24676;51.360;12.354;2023-06-04T10:50:59;33.20;15.60
38910;DHT22;24676;51.360;12.354;2023-06-04T10:53:44;33.00;16.10
38910;DHT22;24676;51.360;12.354;2023-06-04T10:56:32;32.20;16.20
38910;DHT22;24676;51.360;12.354;2023-06-04T10:59:17;31.60;16.60
38910;DHT22;24676;51.360;12.354;2023-06-04T11:02:08;31.20;15.60
38910;DHT22;24676;51.360;12.354;2023-06-04T11:05:03;30.50;16.40
38910;DHT22;24676;51.360;12.354;2023-06-04T11:07:54;30.50;16.60
38910;DHT22;24676;51.360;12.354;2023-06-04T11:10:41;30.00;16.70
38910;DHT22;24676;51.360;12.354;2023-06-04T11:13:25;30.10;16.90
38910;DHT22;24676;51.360;12.354;2023-06-04T11:16:20;30.40;17.00
38910;DHT22;24676;51.360;12.354;2023-06-04T11:19:04;30.90;17.00
38910;DHT22;24676;51.360;12.354;2023-06-04T11:21:49;31.60;17.40
38910;DHT22;24676;51.360;12.354;2023-06-04T11:24:33;32.20;17.20
38910;DHT22;24676;51.360;12.354;2023-06-04T11:27:17;33.30;17.30
38910;DHT22;24676;51.360;12.354;2023-06-04T11:30:02;34.30;17.20
38910;DHT22;24676;51.360;12.354;2023-06-04T11:32:47;35.20;16.60
38910;DHT22;24676;51.360;12.354;2023-06-04T11:35:39;36.00;16.00
38910;DHT22;24676;51.360;12.354;2023-06-04T11:38:24;37.30;15.60
38910;DHT22;24676;51.360;12.354;2023-06-04T11:41:08;37.10;15.40
38910;DHT22;24676;51.360;12.354;2023-06-04T11:43:52;36.70;15.60
38910;DHT22;24676;51.360;12.354;2023-06-04T11:46:40;36.60;15.50
38910;DHT22;24676;51.360;12.354;2023-06-04T11:49:25;35.60;15.90
38910;DHT22;24676;51.360;12.354;2023-06-04T11:52:11;34.40;16.50
38910;DHT22;24676;51.360;12.354;2023-06-04T11:54:59;34.20;17.30
38910;DHT22;24676;51.360;12.354;2023-06-04T11:57:44;35.00;16.80
38910;DHT22;24676;51.360;12.354;2023-06-04T12:00:28;35.40;16.80
38910;DHT22;24676;51.360;12.354;2023-06-04T12:03:14;36.40;16.50
38910;DHT22;24676;51.360;12.354;2023-06-04T12:05:58;37.10;16.00
38910;DHT22;24676;51.360;12.354;2023-06-04T12:08:52;37.50;15.80
38910;DHT22;24676;51.360;12.354;2023-06-04T12:11:37;36.80;15.40
38910;DHT22;24676;51.360;12.354;2023-06-04T12:14:21;36.20;15.80
38910;DHT22;24676;51.360;12.354;2023-06-04T12:17:07;36.00;15.90
38910;DHT22;24676;51.360;12.354;2023-06-04T12:19:52;35.10;15.90
38910;DHT22;24676;51.360;12.354;2023-06-04T12:22:45;34.80;16.40
38910;DHT22;24676;51.360;12.354;2023-06-04T12:25:30;35.40;16.60
38910;DHT22;24676;51.360;12.354;2023-06-04T12:28:17;35.60;15.60
38910;DHT22;24676;51.360;12.354;2023-06-04T12:31:02;35.60;15.60
38910;DHT22;24676;51.360;12.354;2023-06-04T12:33:46;34.50;16.20
38910;DHT22;24676;51.360;12.354;2023-06-04T12:36:30;34.70;16.60
38910;DHT22;24676;51.360;12.354;2023-06-04T12:39:14;35.10;16.40
38910;DHT22;24676;51.360;12.354;2023-06-04T12:41:58;35.80;16.10
38910;DHT22;24676;51.360;12.354;2023-06-04T12:44:42;36.40;15.60
38910;DHT22;24676;51.360;12.354;2023-06-04T12:47:26;36.00;15.80
38910;DHT22;24676;51.360;12.354;2023-06-04T12:50:11;35.50;16.20
38910;DHT22;24676;51.360;12.354;2023-06-04T12:52:55;34.20;16.10
38910;DHT22;24676;51.360;12.354;2023-06-04T12:55:39;31.70;17.60
38910;DHT22;24676;51.360;12.354;2023-06-04T12:58:23;30.10;18.90
38910;DHT22;24676;51.360;12.354;2023-06-04T13:01:08;29.00;20.00
38910;DHT22;24676;51.360;12.354;2023-06-04T13:03:52;28.40;20.30
38910;DHT22;24676;51.360;12.354;2023-06-04T13:06:36;28.00;20.70
38910;DHT22;24676;51.360;12.354;2023-06-04T13:09:21;27.60;21.90
38910;DHT22;24676;51.360;12.354;2023-06-04T13:12:07;27.30;21.00
38910;DHT22;24676;51.360;12.354;2023-06-04T13:14:53;26.70;21.40
38910;DHT22;24676;51.360;12.354;2023-06-04T13:17:39;26.40;21.70
38910;DHT22;24676;51.360;12.354;2023-06-04T13:20:23;26.40;21.90
38910;DHT22;24676;51.360;12.354;2023-06-04T13:23:07;26.20;22.20
38910;DHT22;24676;51.360;12.354;2023-06-04T13:25:52;25.90;21.40
38910;DHT22;24676;51.360;12.354;2023-06-04T13:28:36;25.40;21.90
38910;DHT22;24676;51.360;12.354;2023-06-04T13:31:21;25.10;21.80
38910;DHT22;24676;51.360;12.354;2023-06-04T13:34:05;24.70;22.00
38910;DHT22;24676;51.360;12.354;2023-06-04T13:36:49;24.50;22.40
38910;DHT22;24676;51.360;12.354;2023-06-04T13:39:34;24.50;22.30
38910;DHT22;24676;51.360;12.354;2023-06-04T13:42:18;24.60;23.00
38910;DHT22;24676;51.360;12.354;2023-06-04T13:45:03;24.80;23.10
38910;DHT22;24676;51.360;12.354;2023-06-04T13:47:48;25.00;22.80
38910;DHT22;24676;51.360;12.354;2023-06-04T13:50:33;25.00;22.60
38910;DHT22;24676;51.360;12.354;2023-06-04T13:53:17;25.10;22.70
38910;DHT22;24676;51.360;12.354;2023-06-04T13:56:01;25.10;22.90
38910;DHT22;24676;51.360;12.354;2023-06-04T13:58:45;25.20;22.70
38910;DHT22;24676;51.360;12.354;2023-06-04T14:01:29;25.30;22.80
38910;DHT22;24676;51.360;12.354;2023-06-04T14:04:14;25.30;22.10
38910;DHT22;24676;51.360;12.354;2023-06-04T14:06:59;25.10;21.90
38910;DHT22;24676;51.360;12.354;2023-06-04T14:09:43;24.90;21.90
38910;DHT22;24676;51.360;12.354;2023-06-04T14:12:27;24.70;22.30
38910;DHT22;24676;51.360;12.354;2023-06-04T14:15:11;24.50;22.10
38910;DHT22;24676;51.360;12.354;2023-06-04T14:17:55;24.40;22.90
38910;DHT22;24676;51.360;12.354;2023-06-04T14:20:39;24.40;22.40
38910;DHT22;24676;51.360;12.354;2023-06-04T14:23:23;24.30;22.40
38910;DHT22;24676;51.360;12.354;2023-06-04T14:26:08;24.20;22.80
38910;DHT22;24676;51.360;12.354;2023-06-04T14:28:52;24.20;23.00
38910;DHT22;24676;51.360;12.354;2023-06-04T14:31:36;24.30;23.60
38910;DHT22;24676;51.360;12.354;2023-06-04T14:34:21;24.30;24.10
38910;DHT22;24676;51.360;12.354;2023-06-04T14:37:05;24.40;23.40
38910;DHT22;24676;51.360;12.354;2023-06-04T14:39:49;24.40;22.90
38910;DHT22;24676;51.360;12.354;2023-06-04T14:42:33;24.20;23.00
38910;DHT22;24676;51.360;12.354;2023-06-04T14:45:17;23.90;23.20
38910;DHT22;24676;51.360;12.354;2023-06-04T14:48:02;23.80;23.40
38910;DHT22;24676;51.360;12.354;2023-06-04T14:50:47;23.70;23.80
38910;DHT22;24676;51.360;12.354;2023-06-04T14:53:31;23.80;24.00
38910;DHT22;24676;51.360;12.354;2023-06-04T14:56:16;23.90;23.90
38910;DHT22;24676;51.360;12.354;2023-06-04T14:59:02;23.90;24.00
38910;DHT22;24676;51.360;12.354;2023-06-04T15:01:49;23.90;23.90
38910;DHT22;24676;51.360;12.354;2023-06-04T15:04:33;23.90;24.00
38910;DHT22;24676;51.360;12.354;2023-06-04T15:07:18;24.00;24.90
38910;DHT22;24676;51.360;12.354;2023-06-04T15:10:03;24.00;24.00
38910;DHT22;24676;51.360;12.354;2023-06-04T15:12:50;23.90;23.70
38910;DHT22;24676;51.360;12.354;2023-06-04T15:15:34;23.80;23.80
38910;DHT22;24676;51.360;12.354;2023-06-04T15:18:19;23.70;23.80
38910;DHT22;24676;51.360;12.354;2023-06-04T15:21:03;23.60;24.10
38910;DHT22;24676;51.360;12.354;2023-06-04T15:23:48;23.70;24.70
38910;DHT22;24676;51.360;12.354;2023-06-04T15:26:32;23.70;25.00
38910;DHT22;24676;51.360;12.354;2023-06-04T15:29:16;23.70;24.10
38910;DHT22;24676;51.360;12.354;2023-06-04T15:32:00;23.60;24.40
38910;DHT22;24676;51.360;12.354;2023-06-04T15:34:44;23.60;24.60
38910;DHT22;24676;51.360;12.354;2023-06-04T15:37:29;23.60;24.90
38910;DHT22;24676;51.360;12.354;2023-06-04T15:40:14;23.60;25.10
38910;DHT22;24676;51.360;12.354;2023-06-04T15:42:58;23.60;24.70
38910;DHT22;24676;51.360;12.354;2023-06-04T15:45:43;23.60;24.60
38910;DHT22;24676;51.360;12.354;2023-06-04T15:48:28;23.50;24.90
38910;DHT22;24676;51.360;12.354;2023-06-04T15:51:14;23.60;25.00
38910;DHT22;24676;51.360;12.354;2023-06-04T15:53:58;23.50;25.00
38910;DHT22;24676;51.360;12.354;2023-06-04T15:56:43;23.40;25.20
38910;DHT22;24676;51.360;12.354;2023-06-04T15:59:28;23.40;25.60
38910;DHT22;24676;51.360;12.354;2023-06-04T16:02:12;23.40;25.30
38910;DHT22;24676;51.360;12.354;2023-06-04T16:04:56;23.30;24.90
38910;DHT22;24676;51.360;12.354;2023-06-04T16:07:40;23.20;24.60
38910;DHT22;24676;51.360;12.354;2023-06-04T16:10:25;23.20;24.80
38910;DHT22;24676;51.360;12.354;2023-06-04T16:13:09;23.10;24.90
38910;DHT22;24676;51.360;12.354;2023-06-04T16:15:54;23.10;25.50
38910;DHT22;24676;51.360;12.354;2023-06-04T16:18:39;23.10;25.20
38910;DHT22;24676;51.360;12.354;2023-06-04T16:21:25;23.10;25.30
38910;DHT22;24676;51.360;12.354;2023-06-04T16:24:10;23.10;25.40
38910;DHT22;24676;51.360;12.354;2023-06-04T16:26:54;23.10;25.20
38910;DHT22;24676;51.360;12.354;2023-06-04T16:29:38;23.10;25.00
38910;DHT22;24676;51.360;12.354;2023-06-04T16:32:22;23.00;25.50
38910;DHT22;24676;51.360;12.354;2023-06-04T16:35:07;23.00;25.60
38910;DHT22;24676;51.360;12.354;2023-06-04T16:37:53;23.00;25.40
38910;DHT22;24676;51.360;12.354;2023-06-04T16:40:38;23.00;25.40
38910;DHT22;24676;51.360;12.354;2023-06-04T16:43:22;22.90;25.10
38910;DHT22;24676;51.360;12.354;2023-06-04T16:46:06;22.80;24.80
38910;DHT22;24676;51.360;12.354;2023-06-04T16:48:51;22.70;24.70
38910;DHT22;24676;51.360;12.354;2023-06-04T16:51:36;22.70;25.00
38910;DHT22;24676;51.360;12.354;2023-06-04T16:54:20;22.60;25.30
38910;DHT22;24676;51.360;12.354;2023-06-04T16:57:05;22.60;25.70
38910;DHT22;24676;51.360;12.354;2023-06-04T16:59:49;22.60;25.90
38910;DHT22;24676;51.360;12.354;2023-06-04T17:02:33;22.60;25.70
38910;DHT22;24676;51.360;12.354;2023-06-04T17:05:18;22.50;25.30
38910;DHT22;24676;51.360;12.354;2023-06-04T17:08:03;22.50;25.60
38910;DHT22;24676;51.360;12.354;2023-06-04T17:10:47;22.50;25.70